createdAt,value
2022-11-18T00:01:15.594Z,96538.56
2022-11-18T00:03:43.524Z,96540.81
2022-11-18T00:06:18.828Z,96537.97
2022-11-18T00:08:45.941Z,96540.41
2022-11-18T00:11:15.314Z,96540.00
2022-11-18T00:13:42.104Z,96537.56
2022-11-18T00:16:12.329Z,96539.38
2022-11-18T00:18:39.416Z,96503.97
2022-11-18T00:21:08.185Z,96533.69
2022-11-18T00:23:35.931Z,96533.38
2022-11-18T00:26:04.406Z,96523.50
2022-11-18T00:28:32.167Z,96527.69
2022-11-18T00:31:10.475Z,96528.84
2022-11-18T00:33:38.430Z,96531.25
2022-11-18T00:36:07.140Z,96532.44
2022-11-18T00:38:33.807Z,96521.53
2022-11-18T00:41:02.914Z,96523.56
2022-11-18T00:43:30.597Z,96526.19
2022-11-18T00:45:57.750Z,96524.16
2022-11-18T00:48:25.410Z,96509.47
2022-11-18T00:50:54.017Z,96520.53
2022-11-18T00:53:22.275Z,96519.09
2022-11-18T00:55:49.085Z,96525.94
2022-11-18T00:58:15.764Z,96526.53
2022-11-18T01:00:44.617Z,96514.84
2022-11-18T01:03:12.556Z,96521.88
2022-11-18T01:05:39.700Z,96517.44
2022-11-18T01:08:08.244Z,96515.81
2022-11-18T01:10:35.566Z,96516.22
2022-11-18T01:13:03.064Z,96519.66
2022-11-18T01:15:29.685Z,96521.03
2022-11-18T01:17:56.477Z,96523.66
2022-11-18T01:20:23.071Z,96517.97
2022-11-18T01:22:49.774Z,96520.41
2022-11-18T01:25:16.488Z,96531.28
2022-11-18T01:27:43.191Z,96517.16
2022-11-18T01:30:10.158Z,96522.41
2022-11-18T01:32:36.912Z,96521.22
2022-11-18T01:35:03.862Z,96525.03
2022-11-18T01:37:30.489Z,96516.63
2022-11-18T01:39:57.230Z,96519.84
2022-11-18T01:42:24.444Z,96521.88
2022-11-18T01:45:30.995Z,96533.56
2022-11-18T01:48:07.556Z,96527.72
2022-11-18T01:50:37.291Z,96499.78
2022-11-18T01:53:09.344Z,96533.16
2022-11-18T01:55:38.910Z,96533.34
2022-11-18T01:58:20.636Z,96523.88
2022-11-18T02:00:47.306Z,96534.38
2022-11-18T02:03:14.285Z,96518.50
2022-11-18T02:05:42.397Z,96530.16
2022-11-18T02:08:09.954Z,96520.88
2022-11-18T02:10:36.662Z,96529.16
2022-11-18T02:13:03.383Z,96491.50
2022-11-18T02:15:41.670Z,96530.81
2022-11-18T02:18:38.734Z,96546.91
2022-11-18T02:21:19.382Z,96527.34
2022-11-18T02:24:11.518Z,96540.81
2022-11-18T02:27:02.947Z,96546.22
2022-11-18T02:29:42.699Z,96531.53
2022-11-18T02:32:21.938Z,96544.78
2022-11-18T02:35:10.517Z,96548.22
2022-11-18T02:37:48.843Z,96544.00
2022-11-18T02:40:35.504Z,96555.31
2022-11-18T02:43:08.104Z,96565.19
2022-11-18T02:45:36.959Z,96561.34
2022-11-18T02:48:09.097Z,96568.56
2022-11-18T02:50:38.207Z,96554.47
2022-11-18T02:53:07.534Z,96567.38
2022-11-18T02:55:39.230Z,96566.19
2022-11-18T02:58:06.660Z,96571.50
2022-11-18T03:00:33.969Z,96573.28
2022-11-18T03:03:00.721Z,96559.56
2022-11-18T03:05:41.665Z,96576.66
2022-11-18T03:08:17.427Z,96575.81
2022-11-18T03:11:16.711Z,96578.22
2022-11-18T03:13:52.019Z,96581.66
2022-11-18T03:16:26.782Z,96581.81
2022-11-18T03:19:05.075Z,96585.25
2022-11-18T03:21:37.659Z,96581.81
2022-11-18T03:24:17.461Z,96587.06
2022-11-18T03:26:51.347Z,96581.06
2022-11-18T03:29:24.679Z,96590.69
2022-11-18T03:31:59.756Z,96590.88
2022-11-18T03:34:38.848Z,96586.84
2022-11-18T03:37:12.373Z,96589.47
2022-11-18T03:39:44.784Z,96591.47
2022-11-18T03:42:36.216Z,96594.72
2022-11-18T03:45:10.005Z,96601.97
2022-11-18T03:47:42.357Z,96604.41
2022-11-18T03:50:20.173Z,96605.63
2022-11-18T03:52:48.978Z,96610.66
2022-11-18T03:55:23.895Z,96612.47
2022-11-18T03:58:19.883Z,96611.25
2022-11-18T04:00:51.573Z,96622.16
2022-11-18T04:03:18.510Z,96620.97
2022-11-18T04:05:46.363Z,96619.94
2022-11-18T04:08:23.294Z,96629.06
2022-11-18T04:10:56.751Z,96619.78
2022-11-18T04:13:35.002Z,96628.47
2022-11-18T04:16:01.736Z,96627.00
2022-11-18T04:18:28.379Z,96630.25
2022-11-18T04:20:55.080Z,96627.41
2022-11-18T04:23:21.677Z,96630.63
2022-11-18T04:25:48.353Z,96629.25
2022-11-18T04:28:15.013Z,96634.06
2022-11-18T04:30:41.704Z,96625.38
2022-11-18T04:33:08.312Z,96631.06
2022-11-18T04:35:35.248Z,96635.06
2022-11-18T04:38:01.835Z,96629.63
2022-11-18T04:40:28.603Z,96640.75
2022-11-18T04:42:55.211Z,96646.19
2022-11-18T04:45:21.887Z,96647.25
2022-11-18T04:47:48.485Z,96651.06
2022-11-18T04:50:15.539Z,96622.50
2022-11-18T04:52:43.474Z,96660.34
2022-11-18T04:55:10.183Z,96663.94
2022-11-18T04:57:36.834Z,96665.63
2022-11-18T05:00:04.288Z,96664.66
2022-11-18T05:02:38.090Z,96667.50
2022-11-18T05:05:07.478Z,96673.03
2022-11-18T05:07:34.164Z,96665.94
2022-11-18T05:10:00.893Z,96670.25
2022-11-18T05:12:29.008Z,96633.38
2022-11-18T05:14:55.792Z,96672.47
2022-11-18T05:17:23.932Z,96674.88
2022-11-18T05:19:50.883Z,96674.47
2022-11-18T05:22:20.048Z,96672.84
2022-11-18T05:24:46.887Z,96677.47
2022-11-18T05:27:15.551Z,96674.84
2022-11-18T05:29:42.540Z,96677.09
2022-11-18T05:32:09.566Z,96667.25
2022-11-18T05:34:36.634Z,96688.59
2022-11-18T05:37:03.348Z,96687.38
2022-11-18T05:39:33.609Z,96655.34
2022-11-18T05:42:00.460Z,96692.41
2022-11-18T05:44:27.120Z,96692.59
2022-11-18T05:46:53.773Z,96693.81
2022-11-18T05:49:21.058Z,96690.34
2022-11-18T05:51:47.721Z,96690.19
2022-11-18T05:54:18.301Z,96692.59
2022-11-18T05:56:45.956Z,96696.06
2022-11-18T05:59:13.715Z,96669.84
2022-11-18T06:01:54.222Z,96715.00
2022-11-18T06:04:34.528Z,96713.97
2022-11-18T06:07:08.551Z,96717.22
2022-11-18T06:09:38.236Z,96709.53
2022-11-18T06:12:06.183Z,96723.25
2022-11-18T06:14:43.160Z,96721.25
2022-11-18T06:17:16.998Z,96728.28
2022-11-18T06:19:44.039Z,96731.72
2022-11-18T06:22:10.797Z,96735.75
2022-11-18T06:24:38.638Z,96735.53
2022-11-18T06:27:05.673Z,96738.38
2022-11-18T06:29:32.357Z,96735.34
2022-11-18T06:31:58.946Z,96748.00
2022-11-18T06:34:25.650Z,96747.00
2022-11-18T06:36:52.316Z,96745.22
2022-11-18T06:39:19.409Z,96755.25
2022-11-18T06:41:46.440Z,96760.09
2022-11-18T06:44:13.828Z,96760.91
2022-11-18T06:46:40.534Z,96759.94
2022-11-18T06:49:07.386Z,96770.84
2022-11-18T06:51:34.035Z,96776.66
2022-11-18T06:54:02.741Z,96782.13
2022-11-18T06:56:31.488Z,96781.91
2022-11-18T06:58:59.055Z,96758.94
2022-11-18T07:01:28.078Z,96790.81
2022-11-18T07:03:55.385Z,96798.44
2022-11-18T07:06:24.466Z,96800.63
2022-11-18T07:08:51.938Z,96804.16
2022-11-18T07:11:21.437Z,96804.66
2022-11-18T07:13:48.590Z,96803.44
2022-11-18T07:16:18.538Z,96791.56
2022-11-18T07:18:46.874Z,96805.75
2022-11-18T07:21:18.996Z,96778.78
2022-11-18T07:23:46.180Z,96825.50
2022-11-18T07:26:13.580Z,96822.06
2022-11-18T07:28:40.908Z,96825.50
2022-11-18T07:31:17.812Z,96823.91
2022-11-18T07:33:45.432Z,96832.38
2022-11-18T07:36:18.586Z,96834.19
2022-11-18T07:38:46.379Z,96798.28
2022-11-18T07:41:21.504Z,96838.78
2022-11-18T07:43:48.819Z,96838.25
2022-11-18T07:46:18.267Z,96844.44
2022-11-18T07:48:46.631Z,96847.31
2022-11-18T07:51:15.132Z,96858.59
2022-11-18T07:53:42.899Z,96857.94
2022-11-18T07:56:10.677Z,96857.91
2022-11-18T07:58:37.636Z,96860.00
2022-11-18T08:01:09.267Z,96862.09
2022-11-18T08:03:36.473Z,96857.47
2022-11-18T08:06:04.290Z,96865.25
2022-11-18T08:08:31.210Z,96830.69
2022-11-18T08:10:59.639Z,96865.50
2022-11-18T08:13:27.602Z,96868.13
2022-11-18T08:15:55.472Z,96869.00
2022-11-18T08:18:26.990Z,96867.63
2022-11-18T08:20:53.812Z,96879.41
2022-11-18T08:23:20.482Z,96875.84
2022-11-18T08:25:47.887Z,96883.38
2022-11-18T08:28:15.044Z,96885.47
2022-11-18T08:30:41.759Z,96883.56
2022-11-18T08:33:08.424Z,96882.06
2022-11-18T08:35:35.082Z,96889.41
2022-11-18T08:38:01.753Z,96884.00
2022-11-18T08:40:28.706Z,96886.16
2022-11-18T08:42:55.300Z,96890.78
2022-11-18T08:45:22.145Z,96893.31
2022-11-18T08:47:48.846Z,96897.34
2022-11-18T08:50:15.813Z,96900.25
2022-11-18T08:52:42.427Z,96902.44
2022-11-18T08:55:09.290Z,96906.63
2022-11-18T08:57:35.935Z,96901.25
2022-11-18T09:00:04.904Z,96911.03
2022-11-18T09:05:22.563Z,96905.41
2022-11-18T09:07:49.150Z,96918.66
2022-11-18T09:10:16.239Z,96915.78
2022-11-18T09:12:42.885Z,96923.81
2022-11-18T09:15:14.581Z,96917.22
2022-11-18T09:17:41.812Z,96921.88
2022-11-18T09:20:09.061Z,96922.31
2022-11-18T09:22:37.324Z,96921.66
2022-11-18T09:25:04.058Z,96921.41
2022-11-18T09:27:31.178Z,96905.44
2022-11-18T09:29:57.835Z,96922.00
2022-11-18T09:32:24.531Z,96932.66
2022-11-18T09:34:51.285Z,96935.59
2022-11-18T09:37:18.019Z,96939.31
2022-11-18T09:39:44.988Z,96935.53
2022-11-18T09:42:11.767Z,96947.16
2022-11-18T09:45:01.057Z,96950.56
2022-11-18T09:47:30.714Z,96963.44
2022-11-18T09:50:14.867Z,96917.41
2022-11-18T09:53:06.685Z,96956.25
2022-11-18T09:55:37.121Z,96963.47
2022-11-18T09:58:05.454Z,96963.22
2022-11-18T10:00:32.431Z,96959.53
2022-11-18T10:03:01.856Z,96966.63
2022-11-18T10:05:31.468Z,96971.22
2022-11-18T10:08:33.034Z,96972.28
2022-11-18T10:11:13.453Z,96977.88
2022-11-18T10:13:52.511Z,96982.47
2022-11-18T10:16:25.352Z,96982.28
2022-11-18T10:19:00.340Z,96986.47
2022-11-18T10:21:53.403Z,96986.94
2022-11-18T10:24:24.011Z,96997.59
2022-11-18T10:27:00.219Z,96990.69
2022-11-18T10:29:27.344Z,97008.91
2022-11-18T10:32:17.647Z,96997.84
2022-11-18T10:34:53.579Z,97008.28
2022-11-18T10:37:45.358Z,97009.72
2022-11-18T10:40:24.947Z,97015.69
2022-11-18T10:42:51.677Z,97017.47
2022-11-18T10:45:21.348Z,97018.41
2022-11-18T10:48:06.633Z,97024.34
2022-11-18T10:50:57.554Z,96987.69
2022-11-18T10:53:34.431Z,97022.56
2022-11-18T10:56:07.163Z,97028.72
2022-11-18T10:58:42.788Z,97032.34
2022-11-18T11:01:23.733Z,97027.75
2022-11-18T11:03:58.283Z,97025.19
2022-11-18T11:06:27.772Z,97030.53
2022-11-18T11:09:00.336Z,97022.31
2022-11-18T11:11:40.256Z,97023.16
2022-11-18T11:14:31.923Z,97027.06
2022-11-18T11:17:10.081Z,97024.13
2022-11-18T11:19:45.586Z,97042.91
2022-11-18T11:22:12.820Z,97002.34
2022-11-18T11:24:39.927Z,97045.91
2022-11-18T11:30:11.247Z,97057.59
2022-11-18T11:33:11.329Z,97051.97
2022-11-18T11:36:12.542Z,97035.75
2022-11-18T11:39:15.705Z,97050.38
2022-11-18T11:42:19.927Z,97062.81
2022-11-18T11:45:07.984Z,97060.84
2022-11-18T11:47:43.373Z,97067.34
2022-11-18T11:50:12.978Z,97073.09
2022-11-18T11:53:02.139Z,97075.16
2022-11-18T11:55:45.917Z,97067.56
2022-11-18T11:59:03.271Z,97076.31
2022-11-18T12:01:58.423Z,97038.88
2022-11-18T12:04:28.051Z,97077.63
2022-11-18T12:06:56.827Z,97083.50
2022-11-18T12:09:43.775Z,97079.41
2022-11-18T12:12:13.526Z,97092.31
2022-11-18T12:14:49.316Z,97086.28
2022-11-18T12:17:24.929Z,97088.13
2022-11-18T12:19:51.645Z,97094.63
2022-11-18T12:22:18.255Z,97092.19
2022-11-18T12:24:44.975Z,97090.88
2022-11-18T12:27:23.969Z,97101.09
2022-11-18T12:29:50.620Z,97101.09
2022-11-18T12:32:36.266Z,97096.84
2022-11-18T12:35:12.062Z,97102.25
2022-11-18T12:37:46.413Z,97094.09
2022-11-18T12:40:31.858Z,97106.59
2022-11-18T12:42:58.611Z,97109.19
2022-11-18T12:45:40.209Z,97116.47
2022-11-18T12:48:33.705Z,97119.03
2022-11-18T12:51:23.781Z,97123.78
2022-11-18T12:53:54.615Z,97128.69
2022-11-18T12:56:22.927Z,97126.91
2022-11-18T12:58:55.228Z,97136.50
2022-11-18T13:01:25.328Z,97091.22
2022-11-18T13:03:52.811Z,97114.44
2022-11-18T13:06:30.322Z,97140.28
2022-11-18T13:09:07.728Z,97139.63
2022-11-18T13:12:01.462Z,97140.28
2022-11-18T13:14:35.138Z,97151.84
2022-11-18T13:17:02.079Z,97154.44
2022-11-18T13:19:28.755Z,97152.94
2022-11-18T13:21:58.028Z,97151.16
2022-11-18T13:24:24.687Z,97147.31
2022-11-18T13:26:59.511Z,97153.31
2022-11-18T13:29:30.711Z,97151.84
2022-11-18T13:32:16.091Z,97158.31
2022-11-18T13:34:56.005Z,97164.81
2022-11-18T13:37:24.264Z,97158.94
2022-11-18T13:39:51.128Z,97137.00
2022-11-18T13:42:27.795Z,97166.09
2022-11-18T13:45:02.180Z,97161.34
2022-11-18T13:47:41.109Z,97170.28
2022-11-18T13:50:10.752Z,97176.78
2022-11-18T13:52:42.250Z,97170.91
2022-11-18T13:55:19.960Z,97180.88
2022-11-18T13:57:56.894Z,97182.25
2022-11-18T14:00:27.314Z,97181.63
2022-11-18T14:03:00.625Z,97189.38
2022-11-18T14:05:27.982Z,97197.34
2022-11-18T14:07:59.732Z,97122.00
2022-11-18T14:10:43.573Z,97197.03
2022-11-18T14:13:22.189Z,97197.53
2022-11-18T14:15:49.296Z,97198.06
2022-11-18T14:18:20.413Z,97197.25
2022-11-18T14:20:52.928Z,97206.94
2022-11-18T14:23:32.842Z,97206.72
2022-11-18T14:26:02.288Z,97199.94
2022-11-18T14:28:31.680Z,97201.59
2022-11-18T14:31:02.619Z,97223.34
2022-11-18T14:33:36.645Z,97208.00
2022-11-18T14:36:10.201Z,97224.69
2022-11-18T14:41:33.031Z,97227.09
2022-11-18T14:43:59.774Z,97236.03
2022-11-18T14:46:26.510Z,97244.25
2022-11-18T14:48:53.077Z,97245.81
2022-11-18T14:51:19.754Z,97235.25
2022-11-18T14:53:46.313Z,97246.31
2022-11-18T14:56:32.127Z,97251.16
2022-11-18T14:58:59.453Z,97254.94
2022-11-18T15:01:30.416Z,97257.72
2022-11-18T15:03:57.633Z,97260.03
2022-11-18T15:06:24.229Z,97259.28
2022-11-18T15:08:52.873Z,97263.88
2022-11-18T15:11:20.249Z,97267.28
2022-11-18T15:13:47.309Z,97270.28
2022-11-18T15:16:20.985Z,97271.22
2022-11-18T15:18:50.829Z,97282.38
2022-11-18T15:21:17.948Z,97277.19
2022-11-18T15:23:44.899Z,97279.94
2022-11-18T15:26:26.379Z,97269.41
2022-11-18T15:28:57.640Z,97276.66
2022-11-18T15:31:25.513Z,97283.50
2022-11-18T15:33:52.791Z,97287.31
2022-11-18T15:36:28.421Z,97281.84
2022-11-18T15:38:55.510Z,97282.75
2022-11-18T15:41:24.785Z,97294.72
2022-11-18T15:43:52.466Z,97303.09
2022-11-18T15:46:21.120Z,97311.31
2022-11-18T15:48:50.875Z,97300.94
2022-11-18T15:51:17.580Z,97320.78
2022-11-18T15:53:44.556Z,97319.69
2022-11-18T15:56:20.386Z,97294.88
2022-11-18T15:58:57.270Z,97325.22
2022-11-18T16:01:32.567Z,97321.53
2022-11-18T16:03:59.546Z,97311.88
2022-11-18T16:06:26.267Z,97317.34
2022-11-18T16:08:58.879Z,97293.16
2022-11-18T16:11:26.789Z,97334.88
2022-11-18T16:13:53.356Z,97345.28
2022-11-18T16:16:24.674Z,97339.81
2022-11-18T16:18:55.413Z,97353.28
2022-11-18T16:21:22.977Z,97358.63
2022-11-18T16:23:49.659Z,97321.25
2022-11-18T16:26:17.349Z,97355.63
2022-11-18T16:28:44.262Z,97355.31
2022-11-18T16:31:10.930Z,97356.84
2022-11-18T16:33:37.580Z,97359.97
2022-11-18T16:36:04.495Z,97362.84
2022-11-18T16:38:31.053Z,97366.97
2022-11-18T16:40:58.966Z,97310.63
2022-11-18T16:43:27.134Z,97369.38
2022-11-18T16:45:54.771Z,97374.38
2022-11-18T16:48:22.448Z,97368.22
2022-11-18T16:51:07.477Z,97374.31
2022-11-18T16:53:34.191Z,97374.84
2022-11-18T16:56:03.946Z,97381.97
2022-11-18T16:58:30.581Z,97380.31
2022-11-18T17:06:30.172Z,97389.47
2022-11-18T17:08:58.331Z,97391.34
2022-11-18T17:11:25.087Z,97392.78
2022-11-18T17:13:56.431Z,97400.25
2022-11-18T17:16:25.780Z,97394.50
2022-11-18T17:18:57.096Z,97397.13
2022-11-18T17:21:24.536Z,97401.09
2022-11-18T17:23:51.151Z,97405.03
2022-11-18T17:26:20.575Z,97411.53
2022-11-18T17:28:47.920Z,97417.94
2022-11-18T17:31:17.115Z,97424.31
2022-11-18T17:33:44.774Z,97426.16
2022-11-18T17:36:14.654Z,97430.63
2022-11-18T17:38:43.127Z,97430.63
2022-11-18T17:41:11.905Z,97416.06
2022-11-18T17:43:38.473Z,97435.41
2022-11-18T17:46:05.219Z,97420.72
2022-11-18T17:48:32.001Z,97435.69
2022-11-18T17:51:06.304Z,97441.69
2022-11-18T17:53:33.208Z,97448.22
2022-11-18T17:56:03.900Z,97445.91
2022-11-18T17:58:30.950Z,97452.59
2022-11-18T18:01:09.997Z,97455.31
2022-11-18T18:03:37.566Z,97460.03
2022-11-18T18:06:05.817Z,97468.34
2022-11-18T18:08:32.967Z,97458.16
2022-11-18T18:11:08.563Z,97479.69
2022-11-18T18:13:37.258Z,97472.56
2022-11-18T18:16:03.962Z,97493.91
2022-11-18T18:18:30.611Z,97491.06
2022-11-18T18:21:01.156Z,97494.22
2022-11-18T18:23:27.883Z,97499.13
2022-11-18T18:25:54.450Z,97493.94
2022-11-18T18:28:21.773Z,97503.31
2022-11-18T18:30:57.608Z,97495.50
2022-11-18T18:33:24.487Z,97474.88
2022-11-18T18:35:51.227Z,97523.25
2022-11-18T18:38:17.888Z,97524.97
2022-11-18T18:40:44.615Z,97482.00
2022-11-18T18:43:11.271Z,97526.00
2022-11-18T18:45:37.850Z,97527.91
2022-11-18T18:48:04.806Z,97524.66
2022-11-18T18:50:32.438Z,97523.69
2022-11-18T18:52:59.118Z,97530.81
2022-11-18T18:55:25.760Z,97524.34
2022-11-18T18:57:52.476Z,97524.84
2022-11-18T19:00:19.240Z,97529.22
2022-11-18T19:02:49.056Z,97528.59
2022-11-18T19:05:15.643Z,97522.47
2022-11-18T19:07:42.868Z,97535.41
2022-11-18T19:10:09.849Z,97527.16
2022-11-18T19:12:36.527Z,97528.81
2022-11-18T19:15:03.337Z,97514.34
2022-11-18T19:17:30.326Z,97545.13
2022-11-18T19:19:57.040Z,97545.44
2022-11-18T19:22:24.068Z,97504.88
2022-11-18T19:24:51.255Z,97556.91
2022-11-18T19:27:19.292Z,97557.53
2022-11-18T19:29:46.093Z,97522.78
2022-11-18T19:32:13.102Z,97563.09
2022-11-18T19:34:39.689Z,97568.25
2022-11-18T19:37:06.728Z,97517.03
2022-11-18T19:39:33.408Z,97576.00
2022-11-18T19:42:00.101Z,97573.72
2022-11-18T19:44:26.790Z,97569.72
2022-11-18T19:46:53.530Z,97581.53
2022-11-18T19:49:20.553Z,97577.38
2022-11-18T19:51:47.516Z,97585.59
2022-11-18T19:54:14.127Z,97581.91
2022-11-18T19:56:40.804Z,97581.19
2022-11-18T19:59:07.378Z,97579.16
2022-11-18T20:01:34.268Z,97582.63
2022-11-18T20:04:01.267Z,97568.97
2022-11-18T20:06:27.994Z,97584.41
2022-11-18T20:08:55.109Z,97555.13
2022-11-18T20:11:22.074Z,97527.03
2022-11-18T20:13:48.997Z,97580.31
2022-11-18T20:16:20.603Z,97586.03
2022-11-18T20:18:51.582Z,97572.91
2022-11-18T20:21:19.566Z,97581.91
2022-11-18T20:23:48.218Z,97581.63
2022-11-18T20:26:17.233Z,97581.41
2022-11-18T20:28:45.574Z,97597.88
2022-11-18T20:31:16.438Z,97601.03
2022-11-18T20:33:46.132Z,97597.44
2022-11-18T20:36:15.531Z,97602.84
2022-11-18T20:41:27.206Z,97603.94
2022-11-18T20:43:53.813Z,97610.81
2022-11-18T20:46:21.800Z,97566.94
2022-11-18T20:48:49.650Z,97600.72
2022-11-18T20:51:21.706Z,97614.31
2022-11-18T20:53:48.317Z,97621.31
2022-11-18T20:56:18.227Z,97612.63
2022-11-18T20:58:45.243Z,97620.63
2022-11-18T21:01:18.003Z,97618.00
2022-11-18T21:04:12.034Z,97618.59
2022-11-18T21:06:39.121Z,97594.44
2022-11-18T21:09:06.331Z,97624.53
2022-11-18T21:11:36.931Z,97623.97
2022-11-18T21:14:04.389Z,97634.06
2022-11-18T21:16:31.167Z,97629.41
2022-11-18T21:18:57.777Z,97637.34
2022-11-18T21:21:24.398Z,97635.72
2022-11-18T21:23:55.384Z,97633.56
2022-11-18T21:26:27.701Z,97640.00
2022-11-18T21:28:56.659Z,97642.28
2022-11-18T21:31:24.570Z,97635.72
2022-11-18T21:33:52.555Z,97635.44
2022-11-18T21:36:20.861Z,97633.56
2022-11-18T21:38:48.348Z,97631.97
2022-11-18T21:41:15.477Z,97630.91
2022-11-18T21:44:04.632Z,97603.59
2022-11-18T21:46:30.265Z,97631.53
2022-11-18T21:49:00.104Z,97643.72
2022-11-18T21:51:27.554Z,97641.56
2022-11-18T21:53:54.624Z,97645.81
2022-11-18T21:56:23.415Z,97650.06
2022-11-18T21:58:50.446Z,97637.75
2022-11-18T22:01:19.744Z,97653.91
2022-11-18T22:03:55.197Z,97650.06
2022-11-18T22:06:24.727Z,97650.56
2022-11-18T22:08:51.765Z,97645.19
2022-11-18T22:11:19.229Z,97654.53
2022-11-18T22:13:45.865Z,97607.47
2022-11-18T22:16:18.248Z,97654.09
2022-11-18T22:18:50.350Z,97651.50
2022-11-18T22:21:22.317Z,97650.66
2022-11-18T22:23:49.004Z,97657.91
2022-11-18T22:26:18.357Z,97654.63
2022-11-18T22:28:46.028Z,97654.06
2022-11-18T22:31:18.018Z,97643.72
2022-11-18T22:33:44.682Z,97664.66
2022-11-18T22:36:13.764Z,97667.13
2022-11-18T22:38:42.173Z,97670.81
2022-11-18T22:41:13.689Z,97636.84
2022-11-18T22:43:40.317Z,97675.06
2022-11-18T22:46:08.253Z,97667.66
2022-11-18T22:48:35.394Z,97687.13
2022-11-18T22:51:04.627Z,97671.31
2022-11-18T22:53:32.595Z,97685.16
2022-11-18T22:56:07.383Z,97673.34
2022-11-18T22:58:34.261Z,97695.41
2022-11-18T23:01:08.853Z,97693.06
2022-11-18T23:03:35.590Z,97696.47
2022-11-18T23:06:03.201Z,97695.41
2022-11-18T23:08:35.178Z,97698.22
2022-11-18T23:11:08.102Z,97699.41
2022-11-18T23:13:39.026Z,97702.31
2022-11-18T23:16:05.911Z,97707.38
2022-11-18T23:18:32.519Z,97714.22
2022-11-18T23:21:01.161Z,97707.63
2022-11-18T23:23:28.940Z,97709.63
2022-11-18T23:26:03.597Z,97716.56
2022-11-18T23:28:30.754Z,97706.47
2022-11-18T23:31:08.989Z,97715.97
2022-11-18T23:33:36.582Z,97715.16
2022-11-18T23:36:03.904Z,97710.81
2022-11-18T23:38:32.881Z,97719.47
2022-11-18T23:41:02.152Z,97710.94
2022-11-18T23:46:56.568Z,97724.53
2022-11-18T23:49:23.064Z,97729.94
2022-11-18T23:51:49.731Z,97735.19
2022-11-18T23:54:16.316Z,97728.38
2022-11-18T23:56:42.863Z,97729.00
2022-11-18T23:59:09.378Z,97735.56
